Time;durP1;ratioP1;P1;durP2;ratioP2;P2;SDS_P1;SDS_P2;PMS_P1;PMS_P2;Temp;Humidity;BMP_temperature;BMP_pressure;BME280_temperature;BME280_humidity;BME280_pressure;Samples;Min_cycle;Max_cycle;Signal;HPM_P1;HPM_P2
2024/01/07 00:01:29;;;;;;;9.00;2.90;;;;;;;-3.74;89.96;100356.55;108981;1257;58175;-61
2024/01/07 00:04:18;;;;;;;8.70;2.90;;;;;;;-3.79;90.03;100353.50;109049;1257;61069;-62
2024/01/07 00:07:07;;;;;;;7.90;3.00;;;;;;;-3.81;90.27;100354.91;108866;1257;74601;-62
2024/01/07 00:09:55;;;;;;;7.90;2.40;;;;;;;-3.81;90.76;100360.48;109046;1257;68834;-61
2024/01/07 00:12:43;;;;;;;8.00;2.80;;;;;;;-3.82;91.45;100357.88;108977;1257;72735;-63
2024/01/07 00:15:33;;;;;;;8.20;3.40;;;;;;;-3.83;90.87;100364.65;108986;1257;58106;-62
2024/01/07 00:18:21;;;;;;;8.60;2.90;;;;;;;-3.85;90.48;100366.06;109030;1257;59095;-62
2024/01/07 00:21:09;;;;;;;7.50;2.80;;;;;;;-3.83;90.96;100367.95;108999;1257;72286;-60
2024/01/07 00:23:57;;;;;;;9.50;3.80;;;;;;;-3.77;91.77;100373.77;109175;1257;65361;-62
2024/01/07 00:26:45;;;;;;;8.70;3.20;;;;;;;-3.72;91.78;100372.83;108980;1257;71417;-64
2024/01/07 00:29:34;;;;;;;7.40;2.40;;;;;;;-3.69;92.27;100374.88;109058;1257;58048;-64
2024/01/07 00:32:22;;;;;;;8.30;2.90;;;;;;;-3.66;92.49;100379.52;109056;1257;60275;-64
2024/01/07 00:35:10;;;;;;;10.90;3.50;;;;;;;-3.65;92.04;100377.95;109051;1257;73795;-64
2024/01/07 00:37:58;;;;;;;10.00;3.50;;;;;;;-3.66;91.86;100384.38;108276;1257;1002765;-61
2024/01/07 00:40:45;;;;;;;14.50;4.60;;;;;;;-3.67;92.08;100384.73;109025;1257;72851;-60
2024/01/07 00:43:34;;;;;;;9.30;4.00;;;;;;;-3.70;92.35;100384.76;108972;1257;59853;-59
2024/01/07 00:46:22;;;;;;;8.80;3.10;;;;;;;-3.73;92.32;100390.70;108996;1257;61295;-60
2024/01/07 00:49:10;;;;;;;9.40;3.30;;;;;;;-3.79;92.77;100389.91;109138;1257;72602;-60
2024/01/07 00:51:58;;;;;;;8.50;3.20;;;;;;;-3.82;93.56;100388.92;109073;1257;66307;-61
2024/01/07 00:54:46;;;;;;;9.70;3.30;;;;;;;-3.88;94.33;100388.65;108349;1257;1015151;-61
2024/01/07 00:57:34;;;;;;;7.50;2.50;;;;;;;-3.97;94.56;100388.08;109030;1257;58149;-61
2024/01/07 01:00:22;;;;;;;9.80;3.20;;;;;;;-4.05;94.72;100391.12;108291;1257;1002441;-60
2024/01/07 01:03:10;;;;;;;12.00;4.00;;;;;;;-4.09;95.15;100392.05;109043;1257;73610;-61
2024/01/07 01:05:58;;;;;;;7.90;2.50;;;;;;;-4.10;94.70;100393.45;109056;1257;68085;-61
2024/01/07 01:08:46;;;;;;;7.90;2.60;;;;;;;-4.11;95.47;100396.39;109120;1257;70213;-61
2024/01/07 01:11:33;;;;;;;11.60;3.50;;;;;;;-4.13;94.98;100397.11;109146;1257;58478;-61
2024/01/07 01:14:21;;;;;;;11.90;3.40;;;;;;;-4.15;95.22;100398.34;109136;1257;60131;-60
2024/01/07 01:17:09;;;;;;;11.70;4.00;;;;;;;-4.16;95.42;100401.65;109117;1257;73801;-62
2024/01/07 01:19:56;;;;;;;9.80;3.60;;;;;;;-4.21;95.36;100406.04;109137;1257;67944;-62
2024/01/07 01:22:44;;;;;;;10.10;3.70;;;;;;;-4.25;95.83;100410.60;108250;1257;1003161;-60
2024/01/07 01:25:32;;;;;;;10.60;3.40;;;;;;;-4.29;95.54;100408.39;109043;1257;58486;-62
2024/01/07 01:28:20;;;;;;;9.10;3.90;;;;;;;-4.28;95.81;100412.88;109176;1257;60058;-62
2024/01/07 01:31:07;;;;;;;11.90;3.70;;;;;;;-4.33;96.18;100407.05;108407;1257;1002185;-61
2024/01/07 01:33:55;;;;;;;9.10;3.30;;;;;;;-4.31;96.38;100410.48;109189;1257;65388;-60
2024/01/07 01:36:43;;;;;;;10.20;4.00;;;;;;;-4.35;96.36;100415.02;109022;1257;72725;-61
2024/01/07 01:39:31;;;;;;;8.70;3.50;;;;;;;-4.38;96.36;100422.17;109056;1257;58179;-61
2024/01/07 01:42:19;;;;;;;9.50;3.70;;;;;;;-4.37;96.61;100424.95;108283;1257;1014825;-61
2024/01/07 01:45:08;;;;;;;10.00;3.30;;;;;;;-4.43;96.09;100427.59;109058;1257;72149;-61
2024/01/07 01:47:55;;;;;;;11.20;3.70;;;;;;;-4.49;95.89;100422.29;109154;1257;68424;-61
2024/01/07 01:50:44;;;;;;;11.40;3.70;;;;;;;-4.56;95.73;100422.88;108292;1257;1003020;-61
2024/01/07 01:53:33;;;;;;;8.80;3.20;;;;;;;-4.62;95.93;100419.64;108371;1257;1002866;-60
2024/01/07 01:56:22;;;;;;;9.40;3.50;;;;;;;-4.67;95.85;100423.48;109035;1257;60080;-61
2024/01/07 01:59:11;;;;;;;10.30;3.00;;;;;;;-4.73;95.80;100419.57;109022;1257;73634;-61
2024/01/07 02:01:59;;;;;;;9.50;3.50;;;;;;;-4.79;96.18;100419.10;109035;1257;67761;-61
2024/01/07 02:04:47;;;;;;;11.50;3.90;;;;;;;-4.86;96.15;100425.74;109140;1257;71368;-60
2024/01/07 02:07:35;;;;;;;10.10;3.40;;;;;;;-4.90;96.30;100427.16;109032;1257;59368;-61
2024/01/07 02:10:22;;;;;;;10.70;3.80;;;;;;;-4.93;96.28;100423.04;109150;1257;61375;-60
2024/01/07 02:13:11;;;;;;;8.90;3.50;;;;;;;-4.93;96.33;100422.16;109077;1257;74272;-59
2024/01/07 02:15:58;;;;;;;8.50;3.50;;;;;;;-4.91;96.80;100430.11;109078;1257;67838;-61
2024/01/07 02:18:46;;;;;;;9.40;3.40;;;;;;;-4.91;96.60;100426.48;109117;1257;72503;-61
2024/01/07 02:21:34;;;;;;;9.20;2.80;;;;;;;-4.94;96.36;100432.04;108279;1257;1002238;-60
2024/01/07 02:24:22;;;;;;;9.60;3.50;;;;;;;-4.99;96.54;100433.13;109066;1257;60471;-60
2024/01/07 02:27:10;;;;;;;9.10;3.60;;;;;;;-5.02;96.69;100435.91;109135;1257;73575;-61
2024/01/07 02:29:58;;;;;;;9.00;3.10;;;;;;;-5.02;96.93;100433.84;109149;1257;66853;-63
2024/01/07 02:32:45;;;;;;;8.20;3.10;;;;;;;-5.00;97.56;100436.42;109130;1257;72551;-61
2024/01/07 02:35:34;;;;;;;9.70;3.80;;;;;;;-4.97;97.29;100436.39;108384;1257;1002209;-61
2024/01/07 02:38:21;;;;;;;8.60;3.20;;;;;;;-4.93;97.67;100440.68;109055;1257;60249;-60
2024/01/07 02:41:09;;;;;;;10.40;3.40;;;;;;;-4.93;97.56;100438.27;109095;1257;73613;-60
2024/01/07 02:43:57;;;;;;;8.20;2.70;;;;;;;-4.99;97.50;100442.13;109056;1258;66279;-60
2024/01/07 02:46:46;;;;;;;9.20;3.20;;;;;;;-5.01;97.88;100445.59;108276;1257;1002288;-60
2024/01/07 02:49:34;;;;;;;7.50;2.70;;;;;;;-5.01;98.12;100447.67;109007;1257;58173;-59
2024/01/07 02:52:21;;;;;;;10.20;3.50;;;;;;;-5.02;98.06;100445.42;108303;1259;1002500;-62
2024/01/07 02:55:09;;;;;;;9.50;3.80;;;;;;;-5.01;98.04;100444.56;109147;1257;74904;-61
2024/01/07 02:57:56;;;;;;;10.30;3.60;;;;;;;-4.99;98.00;100446.96;109066;1257;66332;-60
2024/01/07 03:00:44;;;;;;;11.10;3.70;;;;;;;-4.98;97.78;100441.42;109100;1257;72850;-62
2024/01/07 03:03:32;;;;;;;7.70;2.70;;;;;;;-4.98;97.88;100444.38;109053;1257;58098;-60
2024/01/07 03:06:19;;;;;;;8.90;3.00;;;;;;;-4.98;98.06;100447.13;109123;1257;59282;-61
2024/01/07 03:09:08;;;;;;;9.50;3.60;;;;;;;-4.99;97.68;100440.91;109148;1257;72360;-60
2024/01/07 03:11:55;;;;;;;8.30;3.00;;;;;;;-5.05;97.52;100438.36;108267;1257;1002617;-61
2024/01/07 03:14:43;;;;;;;8.00;3.00;;;;;;;-5.06;97.94;100439.05;109043;1257;72700;-61
2024/01/07 03:17:31;;;;;;;10.60;3.60;;;;;;;-5.06;98.09;100442.52;108334;1257;1002692;-61
2024/01/07 03:20:19;;;;;;;8.60;3.10;;;;;;;-5.04;98.62;100442.34;109150;1257;60450;-60
2024/01/07 03:23:06;;;;;;;8.30;3.40;;;;;;;-5.04;98.39;100445.27;108277;1257;1002241;-60
2024/01/07 03:25:54;;;;;;;9.30;3.40;;;;;;;-5.02;98.62;100445.27;109028;1257;68020;-60
2024/01/07 03:28:41;;;;;;;9.00;2.80;;;;;;;-5.04;98.34;100447.88;109088;1257;73355;-60
2024/01/07 03:31:29;;;;;;;7.30;2.40;;;;;;;-5.04;98.41;100450.30;109049;1257;58159;-61
2024/01/07 03:34:17;;;;;;;6.90;2.60;;;;;;;-5.07;98.42;100454.29;108245;1257;1002319;-60
2024/01/07 03:37:05;;;;;;;8.00;2.80;;;;;;;-5.11;98.30;100452.94;108997;1257;73849;-61
2024/01/07 03:39:53;;;;;;;6.70;2.90;;;;;;;-5.12;98.60;100448.61;107608;1257;1002712;-60
2024/01/07 03:42:42;;;;;;;8.30;3.00;;;;;;;-5.12;98.40;100449.14;108992;1257;73509;-60
2024/01/07 03:45:31;;;;;;;9.10;3.00;;;;;;;-5.10;98.67;100453.45;108972;1257;59645;-62
2024/01/07 03:48:19;;;;;;;9.30;3.20;;;;;;;-5.10;98.38;100453.63;109165;1257;59253;-61
2024/01/07 03:51:07;;;;;;;7.70;2.80;;;;;;;-5.11;98.09;100456.59;108378;1257;1002963;-61
2024/01/07 03:53:55;;;;;;;8.20;3.00;;;;;;;-5.16;97.72;100459.21;109140;1260;67723;-60
2024/01/07 03:56:43;;;;;;;8.30;2.90;;;;;;;-5.19;97.71;100465.80;109144;1257;72828;-59
2024/01/07 03:59:31;;;;;;;8.80;3.40;;;;;;;-5.19;97.95;100462.34;109092;1257;60303;-61
2024/01/07 04:02:18;;;;;;;6.30;2.40;;;;;;;-5.20;98.09;100462.17;109121;1257;60049;-63
2024/01/07 04:05:06;;;;;;;9.30;3.30;;;;;;;-5.22;97.99;100470.83;109107;1257;73623;-61
2024/01/07 04:07:54;;;;;;;11.60;3.90;;;;;;;-5.29;97.76;100473.30;109143;1257;68167;-62
2024/01/07 04:10:42;;;;;;;7.50;3.00;;;;;;;-5.37;97.71;100466.77;108859;1257;72576;-62
2024/01/07 04:13:30;;;;;;;7.90;3.00;;;;;;;-5.36;98.13;100474.91;108319;1260;1015457;-62
2024/01/07 04:16:19;;;;;;;8.00;3.20;;;;;;;-5.39;98.19;100473.55;109151;1257;59969;-61
2024/01/07 04:19:07;;;;;;;8.90;3.20;;;;;;;-5.43;98.51;100474.08;108926;1257;75095;-61
2024/01/07 04:21:55;;;;;;;9.90;3.60;;;;;;;-5.43;98.72;100479.78;109049;1257;66983;-61
2024/01/07 04:24:44;;;;;;;10.10;3.70;;;;;;;-5.42;98.89;100479.27;109119;1257;71552;-61
2024/01/07 04:27:31;;;;;;;8.70;3.50;;;;;;;-5.44;98.99;100480.30;109037;1257;58160;-60
2024/01/07 04:30:20;;;;;;;8.50;2.70;;;;;;;-5.50;99.00;100481.55;108392;1257;1002960;-62
2024/01/07 04:33:08;;;;;;;8.00;2.90;;;;;;;-5.54;98.63;100488.48;108373;1257;1002459;-59
2024/01/07 04:35:58;;;;;;;8.60;2.80;;;;;;;-5.55;99.30;100492.29;109047;1257;66208;-61
2024/01/07 04:38:45;;;;;;;10.30;3.40;;;;;;;-5.58;99.39;100493.70;108285;1257;1002583;-62
2024/01/07 04:41:34;;;;;;;11.80;3.50;;;;;;;-5.56;99.86;100497.14;108239;1257;1002227;-61
2024/01/07 04:44:23;;;;;;;8.20;3.30;;;;;;;-5.56;99.39;100496.11;109156;1257;60344;-60
2024/01/07 04:47:31;;;;;;;9.20;3.30;;;;;;;-5.55;99.89;100499.73;109115;1257;73872;-60
2024/01/07 04:50:19;;;;;;;9.70;3.20;;;;;;;-5.55;99.95;100500.95;109034;1257;67891;-60
2024/01/07 04:53:10;;;;;;;8.40;3.10;;;;;;;-5.58;99.92;100498.54;109130;1257;72660;-61
2024/01/07 04:55:58;;;;;;;10.00;3.40;;;;;;;-5.57;99.97;100495.59;109038;1257;58110;-60
2024/01/07 04:58:46;;;;;;;11.80;4.10;;;;;;;-5.57;100.00;100492.31;109126;1257;60311;-61
2024/01/07 05:01:33;;;;;;;9.20;3.50;;;;;;;-5.57;100.00;100493.88;109047;1257;73675;-60
2024/01/07 05:04:22;;;;;;;9.30;3.10;;;;;;;-5.59;100.00;100494.73;109128;1257;66414;-60
2024/01/07 05:07:10;;;;;;;8.20;2.50;;;;;;;-5.59;100.00;100497.15;108324;1257;1002965;-60
2024/01/07 05:09:58;;;;;;;7.10;2.50;;;;;;;-5.60;100.00;100496.65;108228;1257;1002581;-60
2024/01/07 05:12:46;;;;;;;10.40;3.40;;;;;;;-5.65;100.00;100502.02;109144;1257;58780;-61
2024/01/07 05:15:34;;;;;;;10.50;3.70;;;;;;;-5.72;100.00;100498.24;108242;1257;1003020;-60
2024/01/07 05:18:22;;;;;;;10.20;4.00;;;;;;;-5.74;99.97;100504.14;108852;1257;67910;-63
2024/01/07 05:21:10;;;;;;;9.30;3.30;;;;;;;-5.76;100.00;100502.94;108871;1257;72785;-63
2024/01/07 05:23:58;;;;;;;8.80;3.20;;;;;;;-5.79;100.00;100502.77;108309;1257;1002281;-60
2024/01/07 05:26:45;;;;;;;10.20;2.90;;;;;;;-5.81;100.00;100506.74;108957;1257;60711;-62
2024/01/07 05:29:36;;;;;;;9.80;3.20;;;;;;;-5.82;100.00;100512.63;108939;1257;74847;-61
2024/01/07 05:32:24;;;;;;;8.50;3.50;;;;;;;-5.82;100.00;100519.03;109121;1257;68224;-64
2024/01/07 05:35:11;;;;;;;11.90;3.20;;;;;;;-5.83;100.00;100522.31;109002;1257;70291;-63
2024/01/07 05:37:59;;;;;;;8.00;3.20;;;;;;;-5.80;99.89;100521.11;109121;1257;58084;-62
2024/01/07 05:40:47;;;;;;;10.30;3.90;;;;;;;-5.83;99.07;100525.25;109105;1257;58156;-62
2024/01/07 05:43:36;;;;;;;10.80;3.60;;;;;;;-5.87;98.45;100528.73;109067;1257;73723;-61
2024/01/07 05:46:23;;;;;;;9.30;3.20;;;;;;;-5.93;98.18;100529.61;108992;1257;66359;-61
2024/01/07 05:49:11;;;;;;;7.70;2.60;;;;;;;-6.00;97.58;100535.52;109099;1257;70362;-63
2024/01/07 05:51:59;;;;;;;8.40;3.00;;;;;;;-6.05;97.98;100542.45;109007;1257;60318;-60
2024/01/07 05:54:47;;;;;;;9.90;3.40;;;;;;;-6.08;97.21;100543.32;108836;1257;60097;-62
2024/01/07 05:57:35;;;;;;;9.20;3.70;;;;;;;-6.10;97.35;100548.00;108333;1257;1002439;-61
2024/01/07 06:00:23;;;;;;;10.70;3.30;;;;;;;-6.17;95.52;100549.38;109104;1257;67661;-61
2024/01/07 06:03:11;;;;;;;11.30;3.60;;;;;;;-6.23;95.87;100557.33;109073;1257;72591;-62
2024/01/07 06:05:59;;;;;;;12.60;3.80;;;;;;;-6.28;95.48;100554.40;108996;1257;58151;-61
2024/01/07 06:08:47;;;;;;;7.90;2.70;;;;;;;-6.34;95.33;100556.31;108976;1257;60298;-61
2024/01/07 06:11:35;;;;;;;8.50;3.10;;;;;;;-6.38;95.36;100563.05;109107;1257;74993;-60
2024/01/07 06:14:23;;;;;;;9.00;2.90;;;;;;;-6.44;94.91;100563.73;109102;1259;67836;-62
2024/01/07 06:17:10;;;;;;;11.20;3.60;;;;;;;-6.47;94.99;100564.95;108978;1257;73703;-62
2024/01/07 06:19:58;;;;;;;12.30;3.90;;;;;;;-6.48;94.81;100569.42;108962;1257;58107;-60
2024/01/07 06:22:47;;;;;;;10.00;3.30;;;;;;;-6.48;94.70;100576.86;109110;1261;60133;-61
2024/01/07 06:25:35;;;;;;;9.50;3.60;;;;;;;-6.53;93.69;100578.23;109015;1257;73581;-62
2024/01/07 06:28:22;;;;;;;9.90;4.00;;;;;;;-6.57;93.73;100577.73;109111;1257;66699;-61
2024/01/07 06:31:10;;;;;;;11.00;3.70;;;;;;;-6.60;93.33;100583.25;108223;1257;1002823;-61
2024/01/07 06:33:58;;;;;;;10.60;3.60;;;;;;;-6.61;93.23;100587.91;109107;1257;58214;-61
2024/01/07 06:36:46;;;;;;;9.30;4.10;;;;;;;-6.61;92.98;100589.46;109051;1257;60440;-62
2024/01/07 06:39:34;;;;;;;9.30;2.90;;;;;;;-6.62;92.23;100594.12;108322;1257;1002635;-62
2024/01/07 06:42:22;;;;;;;9.60;3.60;;;;;;;-6.64;92.33;100597.05;109100;1257;67656;-62
2024/01/07 06:45:10;;;;;;;10.90;4.20;;;;;;;-6.66;92.36;100593.93;109011;1257;71500;-61
2024/01/07 06:47:58;;;;;;;9.80;3.50;;;;;;;-6.71;91.80;100588.59;109028;1259;58184;-61
2024/01/07 06:50:46;;;;;;;13.60;5.70;;;;;;;-6.75;91.63;100593.74;108979;1257;59216;-65
2024/01/07 06:53:33;;;;;;;12.50;4.60;;;;;;;-6.81;91.79;100592.20;108923;1259;74323;-62
2024/01/07 06:56:21;;;;;;;11.20;4.30;;;;;;;-6.87;91.41;100597.19;109044;1259;66320;-62
2024/01/07 06:59:10;;;;;;;10.60;3.20;;;;;;;-6.91;91.21;100600.80;108935;1260;72761;-62
2024/01/07 07:01:58;;;;;;;11.00;3.90;;;;;;;-6.93;91.54;100607.00;108287;1257;1002382;-63
2024/01/07 07:04:46;;;;;;;8.90;3.00;;;;;;;-6.95;91.45;100611.48;109197;1257;58090;-62
2024/01/07 07:07:34;;;;;;;11.00;3.60;;;;;;;-6.99;91.83;100616.14;109164;1257;73617;-61
2024/01/07 07:10:22;;;;;;;8.90;3.30;;;;;;;-7.03;91.29;100618.88;108982;1257;67568;-62
2024/01/07 07:13:12;;;;;;;11.10;3.50;;;;;;;-7.07;91.46;100620.77;109188;1257;72676;-61
2024/01/07 07:16:00;;;;;;;11.50;3.80;;;;;;;-7.08;91.84;100623.70;108385;1257;1002714;-60
2024/01/07 07:18:48;;;;;;;8.00;2.40;;;;;;;-7.12;90.41;100627.30;108265;1259;1002278;-63
2024/01/07 07:21:36;;;;;;;7.80;2.60;;;;;;;-7.16;90.65;100629.70;109076;1257;72342;-62
2024/01/07 07:24:24;;;;;;;8.80;3.00;;;;;;;-7.19;90.91;100632.10;108385;1257;1002474;-62
2024/01/07 07:27:12;;;;;;;12.30;3.10;;;;;;;-7.25;89.90;100629.66;108423;1257;1002122;-62
2024/01/07 07:29:59;;;;;;;9.70;3.40;;;;;;;-7.31;89.32;100632.05;108304;1257;1015050;-62
2024/01/07 07:32:47;;;;;;;9.50;3.30;;;;;;;-7.36;89.02;100634.27;108417;1257;1002945;-62
2024/01/07 07:35:35;;;;;;;9.80;3.40;;;;;;;-7.36;88.66;100641.52;109187;1257;72519;-61
2024/01/07 07:38:23;;;;;;;9.40;3.00;;;;;;;-7.33;88.67;100648.41;109079;1257;67888;-62
2024/01/07 07:41:11;;;;;;;7.40;2.50;;;;;;;-7.30;88.28;100650.70;108935;1259;72511;-63
2024/01/07 07:44:00;;;;;;;9.50;3.50;;;;;;;-7.31;86.56;100654.48;108268;1260;1002171;-63
2024/01/07 07:46:48;;;;;;;10.50;3.10;;;;;;;-7.32;86.76;100655.16;109071;1260;60142;-64
2024/01/07 07:49:39;;;;;;;9.30;3.20;;;;;;;-7.33;86.56;100654.13;109033;1259;71265;-62
2024/01/07 07:52:28;;;;;;;9.90;3.40;;;;;;;-7.42;85.99;100650.10;109041;1260;66405;-63
2024/01/07 07:55:16;;;;;;;11.40;3.30;;;;;;;-7.54;84.18;100656.95;108254;1259;1002639;-62
2024/01/07 07:58:04;;;;;;;11.20;3.40;;;;;;;-7.61;83.72;100662.58;108945;1259;58232;-61
2024/01/07 08:00:52;;;;;;;9.20;3.60;;;;;;;-7.70;83.61;100667.35;108176;1259;1002066;-62
2024/01/07 08:03:40;;;;;;;13.50;3.50;;;;;;;-7.75;84.69;100669.04;108249;1260;1002151;-63
2024/01/07 08:06:29;;;;;;;10.90;3.60;;;;;;;-7.76;85.47;100677.83;109056;1260;66332;-61
2024/01/07 08:09:16;;;;;;;11.90;3.40;;;;;;;-7.76;85.39;100675.93;109054;1259;70964;-62
2024/01/07 08:12:06;;;;;;;13.00;3.50;;;;;;;-7.75;86.28;100686.28;108974;1259;58243;-61
2024/01/07 08:14:53;;;;;;;11.50;3.40;;;;;;;-7.69;86.99;100688.04;108951;1259;59578;-62
2024/01/07 08:17:42;;;;;;;9.60;3.30;;;;;;;-7.63;87.03;100688.77;108975;1257;73870;-63
2024/01/07 08:20:30;;;;;;;10.50;3.70;;;;;;;-7.57;86.41;100691.05;109018;1257;68050;-61
2024/01/07 08:23:18;;;;;;;11.80;3.60;;;;;;;-7.52;85.57;100691.42;108938;1257;72635;-63
2024/01/07 08:26:06;;;;;;;10.10;3.50;;;;;;;-7.48;85.63;100697.31;109112;1258;58426;-61
2024/01/07 08:28:53;;;;;;;11.30;3.70;;;;;;;-7.44;84.87;100699.05;109059;1257;60054;-62
2024/01/07 08:31:42;;;;;;;11.50;3.40;;;;;;;-7.42;84.73;100706.48;109073;1257;72938;-60
2024/01/07 08:34:31;;;;;;;10.80;3.30;;;;;;;-7.42;83.03;100703.21;109088;1257;67628;-63
2024/01/07 08:37:19;;;;;;;10.40;3.80;;;;;;;-7.41;83.11;100712.87;109035;1257;71208;-62
2024/01/07 08:40:09;;;;;;;10.90;3.40;;;;;;;-7.40;82.21;100714.95;109102;1260;58672;-62
2024/01/07 08:42:57;;;;;;;10.00;3.80;;;;;;;-7.37;83.36;100718.93;109154;1257;60064;-61
2024/01/07 08:45:45;;;;;;;12.00;3.80;;;;;;;-7.26;82.70;100715.03;109031;1257;74816;-63
2024/01/07 08:48:33;;;;;;;11.80;3.60;;;;;;;-7.17;82.31;100719.91;109127;1257;67764;-62
2024/01/07 08:51:20;;;;;;;8.90;3.00;;;;;;;-6.95;82.76;100719.48;109080;1257;70199;-63
2024/01/07 08:54:08;;;;;;;9.10;3.20;;;;;;;-6.79;81.76;100725.08;109075;1257;58271;-61
2024/01/07 08:56:56;;;;;;;9.10;3.60;;;;;;;-6.67;81.68;100728.25;108373;1257;1002446;-65
2024/01/07 08:59:44;;;;;;;10.80;3.30;;;;;;;-6.48;79.42;100725.02;108976;1257;73362;-62
2024/01/07 09:02:31;;;;;;;10.40;3.70;;;;;;;-6.44;78.67;100726.07;109041;1257;68601;-62
2024/01/07 09:05:19;;;;;;;11.30;3.30;;;;;;;-6.42;77.93;100723.83;109131;1257;71451;-64
2024/01/07 09:08:07;;;;;;;9.00;2.70;;;;;;;-6.39;76.44;100725.73;108971;1257;58819;-62
2024/01/07 09:10:55;;;;;;;10.50;3.30;;;;;;;-6.43;76.55;100722.79;109092;1260;59695;-62
2024/01/07 09:13:44;;;;;;;12.10;3.50;;;;;;;-6.45;75.86;100725.71;109030;1257;73965;-61
2024/01/07 09:16:32;;;;;;;7.80;2.30;;;;;;;-6.41;76.21;100730.04;108968;1257;66344;-61
2024/01/07 09:19:19;;;;;;;9.20;3.20;;;;;;;-6.36;77.38;100726.95;109160;1257;71774;-64
2024/01/07 09:22:07;;;;;;;10.80;3.30;;;;;;;-6.29;77.74;100722.98;109033;1257;59902;-63
2024/01/07 09:24:55;;;;;;;12.40;4.30;;;;;;;-6.27;77.41;100717.97;109104;1257;58633;-66
2024/01/07 09:27:43;;;;;;;16.00;6.20;;;;;;;-6.13;77.24;100722.66;109037;1257;74932;-64
2024/01/07 09:30:31;;;;;;;8.70;3.20;;;;;;;-6.24;75.92;100720.75;109088;1257;67720;-65
2024/01/07 09:33:22;;;;;;;9.80;3.70;;;;;;;-6.37;75.78;100721.25;109152;1257;71183;-66
2024/01/07 09:36:11;;;;;;;11.50;3.80;;;;;;;-6.30;77.42;100729.20;109063;1257;58536;-66
2024/01/07 09:39:15;;;;;;;16.40;6.60;;;;;;;-6.03;76.51;100728.02;108361;1257;1003257;-63
2024/01/07 09:42:04;;;;;;;10.00;3.80;;;;;;;-5.90;76.79;100730.77;109082;1257;72309;-64
2024/01/07 09:44:52;;;;;;;11.80;4.50;;;;;;;-5.83;77.02;100730.08;109080;1258;67848;-66
2024/01/07 09:47:43;;;;;;;12.00;4.40;;;;;;;-5.77;74.89;100730.61;109196;1257;71100;-64
2024/01/07 09:50:32;;;;;;;13.00;4.10;;;;;;;-5.74;74.95;100737.17;108180;1257;1002388;-67
2024/01/07 09:53:25;;;;;;;9.70;3.50;;;;;;;-5.65;74.49;100738.73;109036;1258;60304;-64
2024/01/07 09:56:26;;;;;;;12.50;3.90;;;;;;;-5.51;74.90;100734.73;108247;1257;1002307;-65
2024/01/07 09:59:16;;;;;;;10.10;3.60;;;;;;;-5.16;74.91;100735.21;109118;1256;67948;-64
2024/01/07 10:02:04;;;;;;;9.80;3.30;;;;;;;-5.09;74.40;100731.71;109173;1257;71466;-64
2024/01/07 10:04:52;;;;;;;9.60;3.40;;;;;;;-5.07;71.92;100731.20;108980;1257;59621;-64
2024/01/07 10:07:41;;;;;;;9.20;3.60;;;;;;;-5.07;71.59;100733.97;108290;1258;1002283;-63
2024/01/07 10:10:29;;;;;;;11.50;3.80;;;;;;;-5.08;71.37;100726.52;109101;1257;73868;-65
2024/01/07 10:13:19;;;;;;;9.00;3.20;;;;;;;-4.97;71.57;100737.23;109069;1257;67500;-63
2024/01/07 10:16:08;;;;;;;8.10;3.10;;;;;;;-4.21;68.24;100743.63;109141;1262;72541;-63
2024/01/07 10:18:57;;;;;;;10.30;3.10;;;;;;;-3.67;68.19;100743.73;109204;1257;58164;-63
2024/01/07 10:21:45;;;;;;;9.50;3.50;;;;;;;-3.61;65.79;100745.80;109031;1257;58750;-62
2024/01/07 10:24:40;;;;;;;9.10;3.30;;;;;;;-3.94;66.58;100745.18;109116;1257;72533;-65
2024/01/07 10:27:28;;;;;;;10.80;3.30;;;;;;;-4.08;66.95;100741.29;109062;1257;66495;-62
2024/01/07 10:30:16;;;;;;;10.40;3.30;;;;;;;-4.14;66.93;100740.47;109023;1257;72476;-62
2024/01/07 10:33:06;;;;;;;8.90;3.00;;;;;;;-4.04;65.97;100743.35;109094;1257;58546;-63
2024/01/07 10:36:03;;;;;;;9.70;3.20;;;;;;;-3.97;65.27;100741.05;109062;1257;58148;-63
2024/01/07 10:38:51;;;;;;;10.40;3.40;;;;;;;-4.22;65.82;100739.30;109063;1258;73694;-62
2024/01/07 10:41:40;;;;;;;10.40;3.50;;;;;;;-4.58;66.42;100740.19;108919;1257;68130;-62
2024/01/07 10:44:31;;;;;;;9.80;3.40;;;;;;;-4.41;66.78;100741.67;109033;1257;71310;-62
2024/01/07 10:47:20;;;;;;;8.80;2.90;;;;;;;-4.72;66.12;100733.49;109042;1257;58558;-64
2024/01/07 10:50:12;;;;;;;9.40;3.20;;;;;;;-4.97;67.60;100733.41;109045;1257;59080;-61
2024/01/07 10:53:05;;;;;;;9.00;3.70;;;;;;;-4.26;66.85;100730.84;108777;1260;72698;-65
2024/01/07 10:56:00;;;;;;;7.80;2.60;;;;;;;-4.65;66.25;100730.87;108784;1260;66593;-62
2024/01/07 10:58:49;;;;;;;9.40;2.50;;;;;;;-4.69;67.64;100732.80;108908;1261;72478;-62
2024/01/07 11:01:37;;;;;;;10.40;3.30;;;;;;;-4.43;67.83;100724.85;108799;1260;58135;-63
2024/01/07 11:04:45;;;;;;;8.70;3.10;;;;;;;-3.76;64.81;100721.80;108871;1260;58882;-62
2024/01/07 11:07:44;;;;;;;10.80;3.60;;;;;;;-2.84;61.83;100717.76;108929;1261;72462;-62
2024/01/07 11:10:41;;;;;;;9.60;3.20;;;;;;;-3.39;60.98;100719.39;108858;1263;69079;-62
2024/01/07 11:13:39;;;;;;;8.80;3.00;;;;;;;-3.98;62.32;100717.99;108893;1260;72756;-64
2024/01/07 11:16:39;;;;;;;9.60;3.50;;;;;;;-3.14;62.32;100719.30;108906;1261;59558;-61
2024/01/07 11:19:27;;;;;;;9.20;3.40;;;;;;;-2.15;60.56;100717.37;108924;1262;60251;-63
2024/01/07 11:22:27;;;;;;;9.30;3.70;;;;;;;-1.52;59.51;100707.14;108909;1260;74664;-63
2024/01/07 11:25:34;;;;;;;11.70;4.10;;;;;;;-1.00;57.72;100707.04;108958;1259;66438;-62
2024/01/07 11:28:53;;;;;;;9.40;3.60;;;;;;;-0.96;56.75;100706.10;108961;1263;71490;-62
2024/01/07 11:31:50;;;;;;;10.80;3.70;;;;;;;-0.69;55.04;100708.67;109106;1257;58281;-64
2024/01/07 11:34:43;;;;;;;9.40;4.20;;;;;;;-0.51;54.65;100713.88;109011;1257;60387;-65
2024/01/07 11:37:32;;;;;;;9.80;3.80;;;;;;;-0.49;53.38;100709.83;109027;1260;72287;-63
2024/01/07 11:40:20;;;;;;;9.00;3.10;;;;;;;-1.35;54.52;100715.54;108964;1257;68084;-61
2024/01/07 11:43:11;;;;;;;11.10;3.90;;;;;;;-2.04;55.38;100717.38;109002;1257;72437;-66
2024/01/07 11:45:58;;;;;;;9.50;3.50;;;;;;;-2.48;55.86;100717.32;108943;1257;58138;-63
2024/01/07 11:48:47;;;;;;;8.60;3.60;;;;;;;-2.56;56.02;100719.33;109008;1257;58137;-62
2024/01/07 11:51:35;;;;;;;10.60;3.80;;;;;;;-2.70;56.60;100729.58;108296;1262;1002312;-63
2024/01/07 11:54:23;;;;;;;10.20;3.40;;;;;;;-3.09;57.59;100725.68;109043;1258;66621;-61
2024/01/07 11:57:11;;;;;;;10.00;3.70;;;;;;;-3.37;58.53;100724.06;108405;1257;1002884;-64
2024/01/07 12:00:01;;;;;;;9.60;4.10;;;;;;;-3.85;59.51;100727.26;108989;1257;58131;-62
2024/01/07 12:03:02;;;;;;;12.10;3.60;;;;;;;-4.35;59.90;100731.75;109085;1260;58701;-62
2024/01/07 12:05:50;;;;;;;9.90;3.60;;;;;;;-4.79;61.52;100730.23;108304;1257;1002341;-63
2024/01/07 12:08:38;;;;;;;9.00;3.10;;;;;;;-5.14;62.94;100735.02;109183;1257;66635;-65
2024/01/07 12:11:26;;;;;;;9.10;3.40;;;;;;;-5.18;64.52;100731.74;109052;1257;72706;-64
2024/01/07 12:14:15;;;;;;;10.40;3.50;;;;;;;-5.04;65.19;100730.16;108268;1257;1003217;-62
2024/01/07 12:17:02;;;;;;;9.70;3.60;;;;;;;-5.22;65.09;100730.71;108979;1261;59641;-65
2024/01/07 12:19:51;;;;;;;10.10;3.80;;;;;;;-5.35;65.93;100729.88;109163;1261;73489;-65
2024/01/07 12:22:39;;;;;;;14.00;4.50;;;;;;;-5.45;66.30;100735.95;109067;1257;67887;-62
2024/01/07 12:25:26;;;;;;;9.70;3.80;;;;;;;-5.57;67.02;100736.13;109076;1257;72423;-63
2024/01/07 12:28:18;;;;;;;14.20;4.20;;;;;;;-5.57;67.89;100743.04;109088;1258;58166;-64
2024/01/07 12:31:07;;;;;;;11.70;3.60;;;;;;;-5.75;68.47;100741.66;109012;1257;60142;-62
2024/01/07 12:33:56;;;;;;;11.10;3.90;;;;;;;-5.95;69.56;100743.56;108263;1257;1002644;-63
2024/01/07 12:36:46;;;;;;;11.80;3.60;;;;;;;-6.14;70.62;100748.05;108398;1258;1002214;-62
2024/01/07 12:39:34;;;;;;;9.70;3.80;;;;;;;-6.15;70.79;100744.09;109146;1257;72527;-62
2024/01/07 12:42:23;;;;;;;9.60;3.20;;;;;;;-5.97;71.26;100742.89;109048;1257;58430;-63
2024/01/07 12:45:15;;;;;;;9.60;3.90;;;;;;;-5.89;71.75;100743.21;109161;1257;58958;-65
2024/01/07 12:48:03;;;;;;;13.80;4.40;;;;;;;-6.00;71.56;100744.98;109020;1256;73811;-63